sensor_id;sensor_type;location;lat;lon;timestamp;P1;durP1;ratioP1;P2;durP2;ratioP2
84860;SDS011;75116;42.644;23.274;2024-01-15T00:01:28;23.10;;;13.65;;
84860;SDS011;75116;42.644;23.274;2024-01-15T00:03:54;13.85;;;6.50;;
84860;SDS011;75116;42.644;23.274;2024-01-15T00:08:46;14.25;;;7.38;;
84860;SDS011;75116;42.644;23.274;2024-01-15T00:13:37;18.83;;;10.00;;
84860;SDS011;75116;42.644;23.274;2024-01-15T00:18:29;17.85;;;9.73;;
84860;SDS011;75116;42.644;23.274;2024-01-15T00:20:54;22.63;;;11.35;;
84860;SDS011;75116;42.644;23.274;2024-01-15T00:25:45;12.60;;;8.32;;
84860;SDS011;75116;42.644;23.274;2024-01-15T00:28:11;9.60;;;6.07;;
84860;SDS011;75116;42.644;23.274;2024-01-15T00:30:37;17.70;;;11.15;;
84860;SDS011;75116;42.644;23.274;2024-01-15T00:33:02;9.02;;;5.28;;
84860;SDS011;75116;42.644;23.274;2024-01-15T00:37:54;19.35;;;8.82;;
84860;SDS011;75116;42.644;23.274;2024-01-15T00:42:45;16.30;;;8.45;;
84860;SDS011;75116;42.644;23.274;2024-01-15T00:47:36;13.80;;;8.15;;
84860;SDS011;75116;42.644;23.274;2024-01-15T00:52:27;6.07;;;3.38;;
84860;SDS011;75116;42.644;23.274;2024-01-15T00:57:18;21.65;;;11.55;;
84860;SDS011;75116;42.644;23.274;2024-01-15T01:04:35;12.82;;;7.07;;
84860;SDS011;75116;42.644;23.274;2024-01-15T01:09:26;11.18;;;5.38;;
84860;SDS011;75116;42.644;23.274;2024-01-15T01:11:54;21.80;;;9.13;;
84860;SDS011;75116;42.644;23.274;2024-01-15T01:14:19;14.65;;;7.45;;
84860;SDS011;75116;42.644;23.274;2024-01-15T01:19:10;17.55;;;10.65;;
84860;SDS011;75116;42.644;23.274;2024-01-15T01:24:02;25.80;;;9.60;;
84860;SDS011;75116;42.644;23.274;2024-01-15T01:28:53;12.80;;;6.05;;
84860;SDS011;75116;42.644;23.274;2024-01-15T01:31:18;20.08;;;8.65;;
84860;SDS011;75116;42.644;23.274;2024-01-15T01:36:09;15.00;;;6.75;;
84860;SDS011;75116;42.644;23.274;2024-01-15T01:43:27;16.52;;;8.32;;
84860;SDS011;75116;42.644;23.274;2024-01-15T01:48:23;20.05;;;10.30;;
84860;SDS011;75116;42.644;23.274;2024-01-15T01:50:50;13.70;;;6.85;;
84860;SDS011;75116;42.644;23.274;2024-01-15T01:55:41;15.15;;;9.00;;
84860;SDS011;75116;42.644;23.274;2024-01-15T02:00:33;11.85;;;6.45;;
84860;SDS011;75116;42.644;23.274;2024-01-15T02:03:00;16.77;;;10.30;;
84860;SDS011;75116;42.644;23.274;2024-01-15T02:05:28;9.85;;;5.20;;
84860;SDS011;75116;42.644;23.274;2024-01-15T02:07:55;12.73;;;8.23;;
84860;SDS011;75116;42.644;23.274;2024-01-15T02:10:21;9.45;;;5.10;;
84860;SDS011;75116;42.644;23.274;2024-01-15T02:15:13;10.77;;;5.65;;
84860;SDS011;75116;42.644;23.274;2024-01-15T02:17:58;22.80;;;12.38;;
84860;SDS011;75116;42.644;23.274;2024-01-15T02:20:25;14.57;;;7.93;;
84860;SDS011;75116;42.644;23.274;2024-01-15T02:22:51;22.27;;;10.38;;
84860;SDS011;75116;42.644;23.274;2024-01-15T02:30:11;25.73;;;17.30;;
84860;SDS011;75116;42.644;23.274;2024-01-15T02:32:37;26.00;;;14.20;;
84860;SDS011;75116;42.644;23.274;2024-01-15T02:35:03;21.77;;;11.50;;
84860;SDS011;75116;42.644;23.274;2024-01-15T02:37:29;26.00;;;14.00;;
84860;SDS011;75116;42.644;23.274;2024-01-15T02:39:55;24.60;;;14.15;;
84860;SDS011;75116;42.644;23.274;2024-01-15T02:42:21;25.98;;;14.45;;
84860;SDS011;75116;42.644;23.274;2024-01-15T02:44:47;26.13;;;15.25;;
84860;SDS011;75116;42.644;23.274;2024-01-15T02:47:13;22.00;;;12.05;;
84860;SDS011;75116;42.644;23.274;2024-01-15T02:52:05;21.20;;;12.38;;
84860;SDS011;75116;42.644;23.274;2024-01-15T02:54:31;19.48;;;11.55;;
84860;SDS011;75116;42.644;23.274;2024-01-15T02:59:22;16.35;;;9.07;;
84860;SDS011;75116;42.644;23.274;2024-01-15T03:01:48;18.95;;;9.77;;
84860;SDS011;75116;42.644;23.274;2024-01-15T03:06:39;20.75;;;10.90;;
84860;SDS011;75116;42.644;23.274;2024-01-15T03:09:05;7.35;;;3.33;;
84860;SDS011;75116;42.644;23.274;2024-01-15T03:11:36;22.83;;;10.20;;
84860;SDS011;75116;42.644;23.274;2024-01-15T03:14:03;17.27;;;9.05;;
84860;SDS011;75116;42.644;23.274;2024-01-15T03:18:54;18.20;;;8.43;;
84860;SDS011;75116;42.644;23.274;2024-01-15T03:21:20;21.17;;;10.52;;
84860;SDS011;75116;42.644;23.274;2024-01-15T03:23:46;18.90;;;8.90;;
84860;SDS011;75116;42.644;23.274;2024-01-15T03:26:12;10.88;;;6.47;;
84860;SDS011;75116;42.644;23.274;2024-01-15T03:28:37;12.85;;;7.05;;
84860;SDS011;75116;42.644;23.274;2024-01-15T03:31:03;15.63;;;7.95;;
84860;SDS011;75116;42.644;23.274;2024-01-15T03:33:29;11.73;;;6.40;;
84860;SDS011;75116;42.644;23.274;2024-01-15T03:38:20;10.82;;;5.63;;
84860;SDS011;75116;42.644;23.274;2024-01-15T03:43:12;10.48;;;5.40;;
84860;SDS011;75116;42.644;23.274;2024-01-15T03:45:37;16.45;;;7.85;;
84860;SDS011;75116;42.644;23.274;2024-01-15T03:50:28;15.95;;;7.68;;
84860;SDS011;75116;42.644;23.274;2024-01-15T03:52:54;20.30;;;10.93;;
84860;SDS011;75116;42.644;23.274;2024-01-15T03:55:20;17.70;;;10.18;;
84860;SDS011;75116;42.644;23.274;2024-01-15T04:00:11;21.92;;;10.63;;
84860;SDS011;75116;42.644;23.274;2024-01-15T04:02:37;16.17;;;8.98;;
84860;SDS011;75116;42.644;23.274;2024-01-15T04:07:28;17.95;;;11.23;;
84860;SDS011;75116;42.644;23.274;2024-01-15T04:09:54;12.48;;;7.15;;
84860;SDS011;75116;42.644;23.274;2024-01-15T04:14:45;19.92;;;8.98;;
84860;SDS011;75116;42.644;23.274;2024-01-15T04:19:36;15.68;;;6.38;;
84860;SDS011;75116;42.644;23.274;2024-01-15T04:24:27;9.38;;;5.32;;
84860;SDS011;75116;42.644;23.274;2024-01-15T04:26:53;11.77;;;5.47;;
84860;SDS011;75116;42.644;23.274;2024-01-15T04:31:44;12.50;;;4.47;;
84860;SDS011;75116;42.644;23.274;2024-01-15T04:36:38;9.13;;;4.75;;
84860;SDS011;75116;42.644;23.274;2024-01-15T04:39:05;8.63;;;4.97;;
84860;SDS011;75116;42.644;23.274;2024-01-15T04:41:31;13.02;;;6.57;;
84860;SDS011;75116;42.644;23.274;2024-01-15T04:43:57;11.90;;;5.97;;
84860;SDS011;75116;42.644;23.274;2024-01-15T04:46:22;12.35;;;6.82;;
84860;SDS011;75116;42.644;23.274;2024-01-15T04:48:48;13.38;;;7.00;;
84860;SDS011;75116;42.644;23.274;2024-01-15T04:53:39;11.95;;;6.22;;
84860;SDS011;75116;42.644;23.274;2024-01-15T04:56:04;13.68;;;6.70;;
84860;SDS011;75116;42.644;23.274;2024-01-15T04:58:30;9.63;;;4.57;;
84860;SDS011;75116;42.644;23.274;2024-01-15T05:00:56;11.95;;;5.72;;
84860;SDS011;75116;42.644;23.274;2024-01-15T05:03:24;10.93;;;4.95;;
84860;SDS011;75116;42.644;23.274;2024-01-15T05:08:16;11.63;;;5.53;;
84860;SDS011;75116;42.644;23.274;2024-01-15T05:13:07;12.18;;;6.00;;
84860;SDS011;75116;42.644;23.274;2024-01-15T05:17:58;16.70;;;8.18;;
84860;SDS011;75116;42.644;23.274;2024-01-15T05:20:24;5.97;;;4.25;;
84860;SDS011;75116;42.644;23.274;2024-01-15T05:25:14;1.13;;;1.13;;
84860;SDS011;75116;42.644;23.274;2024-01-15T05:27:40;16.92;;;6.65;;
84860;SDS011;75116;42.644;23.274;2024-01-15T05:30:09;15.75;;;6.47;;
84860;SDS011;75116;42.644;23.274;2024-01-15T05:32:35;16.30;;;7.68;;
84860;SDS011;75116;42.644;23.274;2024-01-15T05:35:05;14.98;;;6.82;;
84860;SDS011;75116;42.644;23.274;2024-01-15T05:37:31;13.82;;;7.20;;
84860;SDS011;75116;42.644;23.274;2024-01-15T05:39:57;12.98;;;5.78;;
84860;SDS011;75116;42.644;23.274;2024-01-15T05:42:22;8.98;;;5.30;;
84860;SDS011;75116;42.644;23.274;2024-01-15T05:44:48;17.13;;;7.90;;
84860;SDS011;75116;42.644;23.274;2024-01-15T05:47:14;17.50;;;7.22;;
84860;SDS011;75116;42.644;23.274;2024-01-15T05:49:39;14.13;;;6.28;;
84860;SDS011;75116;42.644;23.274;2024-01-15T05:54:31;12.15;;;7.35;;
84860;SDS011;75116;42.644;23.274;2024-01-15T05:59:23;6.97;;;4.45;;
84860;SDS011;75116;42.644;23.274;2024-01-15T06:01:49;12.48;;;4.60;;
84860;SDS011;75116;42.644;23.274;2024-01-15T06:04:14;11.00;;;4.57;;
84860;SDS011;75116;42.644;23.274;2024-01-15T06:06:40;10.75;;;5.32;;
84860;SDS011;75116;42.644;23.274;2024-01-15T06:09:05;17.15;;;8.10;;
84860;SDS011;75116;42.644;23.274;2024-01-15T06:11:31;13.27;;;6.20;;
84860;SDS011;75116;42.644;23.274;2024-01-15T06:14:00;17.75;;;9.15;;
84860;SDS011;75116;42.644;23.274;2024-01-15T06:16:26;13.77;;;7.75;;
84860;SDS011;75116;42.644;23.274;2024-01-15T06:23:47;11.80;;;4.50;;
84860;SDS011;75116;42.644;23.274;2024-01-15T06:26:13;13.75;;;5.55;;
84860;SDS011;75116;42.644;23.274;2024-01-15T06:31:07;6.10;;;3.95;;
84860;SDS011;75116;42.644;23.274;2024-01-15T06:33:33;9.82;;;5.80;;
84860;SDS011;75116;42.644;23.274;2024-01-15T06:38:24;16.52;;;6.55;;
84860;SDS011;75116;42.644;23.274;2024-01-15T06:40:50;9.35;;;5.60;;
84860;SDS011;75116;42.644;23.274;2024-01-15T06:43:17;9.85;;;5.75;;
84860;SDS011;75116;42.644;23.274;2024-01-15T06:45:43;17.10;;;9.13;;
84860;SDS011;75116;42.644;23.274;2024-01-15T06:48:09;20.05;;;10.55;;
84860;SDS011;75116;42.644;23.274;2024-01-15T06:50:35;20.05;;;11.30;;
84860;SDS011;75116;42.644;23.274;2024-01-15T06:53:00;15.23;;;7.43;;
84860;SDS011;75116;42.644;23.274;2024-01-15T06:55:26;11.18;;;6.93;;
84860;SDS011;75116;42.644;23.274;2024-01-15T06:57:53;12.43;;;7.00;;
84860;SDS011;75116;42.644;23.274;2024-01-15T07:00:18;11.13;;;7.03;;
84860;SDS011;75116;42.644;23.274;2024-01-15T07:02:44;7.10;;;4.03;;
84860;SDS011;75116;42.644;23.274;2024-01-15T07:05:13;10.63;;;4.88;;
84860;SDS011;75116;42.644;23.274;2024-01-15T07:07:39;6.53;;;3.95;;
84860;SDS011;75116;42.644;23.274;2024-01-15T07:10:07;15.20;;;7.80;;
84860;SDS011;75116;42.644;23.274;2024-01-15T07:12:36;13.32;;;6.75;;
84860;SDS011;75116;42.644;23.274;2024-01-15T07:15:02;12.27;;;5.68;;
84860;SDS011;75116;42.644;23.274;2024-01-15T07:17:29;8.48;;;5.65;;
84860;SDS011;75116;42.644;23.274;2024-01-15T07:19:56;10.73;;;5.63;;
84860;SDS011;75116;42.644;23.274;2024-01-15T07:22:21;11.43;;;6.72;;
84860;SDS011;75116;42.644;23.274;2024-01-15T07:24:47;14.13;;;6.05;;
84860;SDS011;75116;42.644;23.274;2024-01-15T07:27:13;8.98;;;4.50;;
84860;SDS011;75116;42.644;23.274;2024-01-15T07:29:38;10.98;;;4.95;;
84860;SDS011;75116;42.644;23.274;2024-01-15T07:32:04;12.50;;;7.85;;
84860;SDS011;75116;42.644;23.274;2024-01-15T07:34:30;14.57;;;7.40;;
84860;SDS011;75116;42.644;23.274;2024-01-15T07:36:57;12.20;;;5.47;;
84860;SDS011;75116;42.644;23.274;2024-01-15T07:39:22;8.82;;;5.22;;
84860;SDS011;75116;42.644;23.274;2024-01-15T07:41:49;8.95;;;3.72;;
84860;SDS011;75116;42.644;23.274;2024-01-15T07:44:16;14.82;;;6.22;;
84860;SDS011;75116;42.644;23.274;2024-01-15T07:46:47;9.60;;;4.53;;
84860;SDS011;75116;42.644;23.274;2024-01-15T07:49:13;19.75;;;9.20;;
84860;SDS011;75116;42.644;23.274;2024-01-15T07:51:39;23.45;;;11.40;;
84860;SDS011;75116;42.644;23.274;2024-01-15T07:54:11;26.27;;;15.15;;
84860;SDS011;75116;42.644;23.274;2024-01-15T07:56:52;22.50;;;13.25;;
84860;SDS011;75116;42.644;23.274;2024-01-15T07:59:22;14.02;;;6.70;;
84860;SDS011;75116;42.644;23.274;2024-01-15T08:01:49;13.68;;;7.78;;
84860;SDS011;75116;42.644;23.274;2024-01-15T08:04:15;12.52;;;7.20;;
84860;SDS011;75116;42.644;23.274;2024-01-15T08:06:42;8.75;;;5.65;;
84860;SDS011;75116;42.644;23.274;2024-01-15T08:09:07;10.88;;;6.88;;
84860;SDS011;75116;42.644;23.274;2024-01-15T08:11:34;11.55;;;6.28;;
84860;SDS011;75116;42.644;23.274;2024-01-15T08:14:04;18.92;;;12.13;;
84860;SDS011;75116;42.644;23.274;2024-01-15T08:16:29;21.92;;;10.90;;
84860;SDS011;75116;42.644;23.274;2024-01-15T08:18:55;21.77;;;12.30;;
84860;SDS011;75116;42.644;23.274;2024-01-15T08:21:21;27.60;;;12.85;;
84860;SDS011;75116;42.644;23.274;2024-01-15T08:23:50;25.60;;;13.48;;
84860;SDS011;75116;42.644;23.274;2024-01-15T08:26:16;36.42;;;19.55;;
84860;SDS011;75116;42.644;23.274;2024-01-15T08:28:42;27.48;;;14.98;;
84860;SDS011;75116;42.644;23.274;2024-01-15T08:31:08;53.70;;;27.33;;
84860;SDS011;75116;42.644;23.274;2024-01-15T08:33:34;26.33;;;14.45;;
84860;SDS011;75116;42.644;23.274;2024-01-15T08:36:01;15.93;;;10.95;;
84860;SDS011;75116;42.644;23.274;2024-01-15T08:38:26;28.58;;;15.32;;
84860;SDS011;75116;42.644;23.274;2024-01-15T08:40:52;30.27;;;15.75;;
84860;SDS011;75116;42.644;23.274;2024-01-15T08:43:18;39.25;;;20.88;;
84860;SDS011;75116;42.644;23.274;2024-01-15T08:45:44;24.55;;;14.23;;
84860;SDS011;75116;42.644;23.274;2024-01-15T08:48:10;33.88;;;17.00;;
84860;SDS011;75116;42.644;23.274;2024-01-15T08:50:36;38.50;;;20.00;;
84860;SDS011;75116;42.644;23.274;2024-01-15T08:53:01;36.47;;;17.77;;
84860;SDS011;75116;42.644;23.274;2024-01-15T08:55:28;24.98;;;11.77;;
84860;SDS011;75116;42.644;23.274;2024-01-15T08:57:54;45.85;;;23.20;;
84860;SDS011;75116;42.644;23.274;2024-01-15T09:00:19;40.90;;;23.35;;
84860;SDS011;75116;42.644;23.274;2024-01-15T09:02:45;40.45;;;24.08;;
84860;SDS011;75116;42.644;23.274;2024-01-15T09:05:14;36.08;;;19.77;;
84860;SDS011;75116;42.644;23.274;2024-01-15T09:07:43;19.80;;;11.57;;
84860;SDS011;75116;42.644;23.274;2024-01-15T09:10:13;20.80;;;9.88;;
84860;SDS011;75116;42.644;23.274;2024-01-15T09:12:39;15.52;;;9.00;;
84860;SDS011;75116;42.644;23.274;2024-01-15T09:15:05;16.52;;;10.38;;
84860;SDS011;75116;42.644;23.274;2024-01-15T09:17:34;9.98;;;5.70;;
84860;SDS011;75116;42.644;23.274;2024-01-15T09:20:02;14.43;;;6.80;;
84860;SDS011;75116;42.644;23.274;2024-01-15T09:22:30;13.02;;;7.05;;
84860;SDS011;75116;42.644;23.274;2024-01-15T09:24:56;15.93;;;7.43;;
84860;SDS011;75116;42.644;23.274;2024-01-15T09:27:22;12.57;;;6.57;;
84860;SDS011;75116;42.644;23.274;2024-01-15T09:29:47;18.65;;;10.38;;
84860;SDS011;75116;42.644;23.274;2024-01-15T09:32:13;13.18;;;8.13;;
84860;SDS011;75116;42.644;23.274;2024-01-15T09:34:39;16.70;;;7.07;;
84860;SDS011;75116;42.644;23.274;2024-01-15T09:37:04;19.48;;;10.05;;
84860;SDS011;75116;42.644;23.274;2024-01-15T09:39:30;18.17;;;9.10;;
84860;SDS011;75116;42.644;23.274;2024-01-15T09:41:57;19.58;;;9.10;;
84860;SDS011;75116;42.644;23.274;2024-01-15T09:44:23;28.90;;;12.75;;
84860;SDS011;75116;42.644;23.274;2024-01-15T09:46:49;5.97;;;3.70;;
84860;SDS011;75116;42.644;23.274;2024-01-15T09:49:17;12.88;;;5.93;;
84860;SDS011;75116;42.644;23.274;2024-01-15T09:51:43;31.50;;;14.38;;
84860;SDS011;75116;42.644;23.274;2024-01-15T09:54:09;41.00;;;17.88;;
84860;SDS011;75116;42.644;23.274;2024-01-15T09:56:35;23.23;;;11.85;;
84860;SDS011;75116;42.644;23.274;2024-01-15T09:59:01;18.83;;;9.88;;
84860;SDS011;75116;42.644;23.274;2024-01-15T10:01:29;11.70;;;6.03;;
84860;SDS011;75116;42.644;23.274;2024-01-15T10:03:56;10.10;;;6.15;;
84860;SDS011;75116;42.644;23.274;2024-01-15T10:06:27;23.58;;;10.98;;
84860;SDS011;75116;42.644;23.274;2024-01-15T10:08:53;15.65;;;9.00;;
84860;SDS011;75116;42.644;23.274;2024-01-15T10:11:19;23.77;;;12.10;;
84860;SDS011;75116;42.644;23.274;2024-01-15T10:13:45;30.13;;;14.43;;
84860;SDS011;75116;42.644;23.274;2024-01-15T10:16:14;32.33;;;15.48;;
84860;SDS011;75116;42.644;23.274;2024-01-15T10:18:39;31.13;;;16.90;;
84860;SDS011;75116;42.644;23.274;2024-01-15T10:21:07;16.30;;;10.60;;
84860;SDS011;75116;42.644;23.274;2024-01-15T10:23:33;30.50;;;14.90;;
84860;SDS011;75116;42.644;23.274;2024-01-15T10:25:59;14.95;;;9.15;;
84860;SDS011;75116;42.644;23.274;2024-01-15T10:28:26;33.35;;;15.15;;
84860;SDS011;75116;42.644;23.274;2024-01-15T10:30:55;24.60;;;13.45;;
84860;SDS011;75116;42.644;23.274;2024-01-15T10:33:22;34.65;;;14.80;;
84860;SDS011;75116;42.644;23.274;2024-01-15T10:35:54;30.20;;;13.50;;
84860;SDS011;75116;42.644;23.274;2024-01-15T10:38:21;26.30;;;14.82;;
84860;SDS011;75116;42.644;23.274;2024-01-15T10:40:50;25.13;;;14.40;;
84860;SDS011;75116;42.644;23.274;2024-01-15T10:43:17;30.45;;;15.23;;
84860;SDS011;75116;42.644;23.274;2024-01-15T10:45:46;21.52;;;14.18;;
84860;SDS011;75116;42.644;23.274;2024-01-15T10:48:13;27.02;;;14.35;;
84860;SDS011;75116;42.644;23.274;2024-01-15T10:50:40;24.55;;;15.63;;
84860;SDS011;75116;42.644;23.274;2024-01-15T10:53:06;25.73;;;13.35;;
84860;SDS011;75116;42.644;23.274;2024-01-15T10:55:35;38.00;;;16.88;;
84860;SDS011;75116;42.644;23.274;2024-01-15T10:58:03;32.53;;;19.60;;
84860;SDS011;75116;42.644;23.274;2024-01-15T11:00:29;32.63;;;17.48;;
84860;SDS011;75116;42.644;23.274;2024-01-15T11:02:55;28.42;;;15.18;;
84860;SDS011;75116;42.644;23.274;2024-01-15T11:05:22;29.27;;;16.08;;
84860;SDS011;75116;42.644;23.274;2024-01-15T11:07:48;38.33;;;20.85;;
84860;SDS011;75116;42.644;23.274;2024-01-15T11:13:09;40.17;;;19.73;;
84860;SDS011;75116;42.644;23.274;2024-01-15T11:15:57;39.50;;;21.00;;
84860;SDS011;75116;42.644;23.274;2024-01-15T11:21:42;38.25;;;20.17;;
84860;SDS011;75116;42.644;23.274;2024-01-15T11:29:01;44.15;;;21.10;;
84860;SDS011;75116;42.644;23.274;2024-01-15T11:34:09;53.50;;;25.58;;
84860;SDS011;75116;42.644;23.274;2024-01-15T11:41:57;43.45;;;24.35;;
84860;SDS011;75116;42.644;23.274;2024-01-15T11:44:24;44.60;;;25.33;;
84860;SDS011;75116;42.644;23.274;2024-01-15T11:47:03;38.70;;;18.27;;
84860;SDS011;75116;42.644;23.274;2024-01-15T11:52:20;41.35;;;19.48;;
84860;SDS011;75116;42.644;23.274;2024-01-15T11:54:59;48.22;;;29.02;;
84860;SDS011;75116;42.644;23.274;2024-01-15T11:57:37;49.20;;;28.02;;
84860;SDS011;75116;42.644;23.274;2024-01-15T12:00:18;49.22;;;25.52;;
84860;SDS011;75116;42.644;23.274;2024-01-15T12:02:45;45.72;;;23.55;;
84860;SDS011;75116;42.644;23.274;2024-01-15T12:05:14;39.78;;;20.25;;
84860;SDS011;75116;42.644;23.274;2024-01-15T12:07:45;31.15;;;17.13;;
84860;SDS011;75116;42.644;23.274;2024-01-15T12:10:19;34.10;;;18.35;;
84860;SDS011;75116;42.644;23.274;2024-01-15T12:12:59;36.30;;;19.77;;
84860;SDS011;75116;42.644;23.274;2024-01-15T12:15:30;32.45;;;18.25;;
84860;SDS011;75116;42.644;23.274;2024-01-15T12:17:57;36.67;;;20.70;;
84860;SDS011;75116;42.644;23.274;2024-01-15T12:20:27;38.95;;;21.25;;
84860;SDS011;75116;42.644;23.274;2024-01-15T12:22:53;24.95;;;11.63;;
84860;SDS011;75116;42.644;23.274;2024-01-15T12:25:20;28.65;;;15.63;;
84860;SDS011;75116;42.644;23.274;2024-01-15T12:27:46;32.95;;;18.95;;
84860;SDS011;75116;42.644;23.274;2024-01-15T12:30:15;45.58;;;23.83;;
84860;SDS011;75116;42.644;23.274;2024-01-15T12:32:41;24.90;;;12.48;;
84860;SDS011;75116;42.644;23.274;2024-01-15T12:35:07;33.17;;;17.65;;
84860;SDS011;75116;42.644;23.274;2024-01-15T12:37:37;25.42;;;15.32;;
84860;SDS011;75116;42.644;23.274;2024-01-15T12:40:05;23.13;;;13.18;;
84860;SDS011;75116;42.644;23.274;2024-01-15T12:42:35;23.15;;;11.65;;
84860;SDS011;75116;42.644;23.274;2024-01-15T12:45:07;20.17;;;11.70;;
84860;SDS011;75116;42.644;23.274;2024-01-15T12:47:34;17.33;;;10.55;;
84860;SDS011;75116;42.644;23.274;2024-01-15T12:50:01;22.85;;;12.20;;
84860;SDS011;75116;42.644;23.274;2024-01-15T12:52:27;10.88;;;6.07;;
84860;SDS011;75116;42.644;23.274;2024-01-15T12:54:53;9.77;;;5.57;;
84860;SDS011;75116;42.644;23.274;2024-01-15T12:57:19;12.45;;;5.70;;
84860;SDS011;75116;42.644;23.274;2024-01-15T12:59:45;10.80;;;6.68;;
84860;SDS011;75116;42.644;23.274;2024-01-15T13:02:12;31.92;;;17.08;;
84860;SDS011;75116;42.644;23.274;2024-01-15T13:04:38;17.33;;;10.48;;
84860;SDS011;75116;42.644;23.274;2024-01-15T13:07:05;9.18;;;5.78;;
84860;SDS011;75116;42.644;23.274;2024-01-15T13:09:34;12.88;;;7.20;;
84860;SDS011;75116;42.644;23.274;2024-01-15T13:12:00;28.35;;;16.33;;
84860;SDS011;75116;42.644;23.274;2024-01-15T13:14:28;32.50;;;17.27;;
84860;SDS011;75116;42.644;23.274;2024-01-15T13:16:54;31.23;;;16.48;;
84860;SDS011;75116;42.644;23.274;2024-01-15T13:19:20;35.65;;;18.40;;
84860;SDS011;75116;42.644;23.274;2024-01-15T13:21:47;35.40;;;18.30;;
84860;SDS011;75116;42.644;23.274;2024-01-15T13:24:12;41.83;;;21.75;;
84860;SDS011;75116;42.644;23.274;2024-01-15T13:26:39;36.10;;;18.48;;
84860;SDS011;75116;42.644;23.274;2024-01-15T13:29:05;27.63;;;14.85;;
84860;SDS011;75116;42.644;23.274;2024-01-15T13:31:34;12.77;;;8.55;;
84860;SDS011;75116;42.644;23.274;2024-01-15T13:33:59;11.30;;;6.38;;
84860;SDS011;75116;42.644;23.274;2024-01-15T13:36:25;11.98;;;6.95;;
84860;SDS011;75116;42.644;23.274;2024-01-15T13:38:52;7.85;;;4.10;;
84860;SDS011;75116;42.644;23.274;2024-01-15T13:41:20;23.30;;;12.55;;
84860;SDS011;75116;42.644;23.274;2024-01-15T13:43:50;12.60;;;7.45;;
84860;SDS011;75116;42.644;23.274;2024-01-15T13:46:18;25.17;;;14.18;;
84860;SDS011;75116;42.644;23.274;2024-01-15T13:48:43;21.33;;;11.30;;
84860;SDS011;75116;42.644;23.274;2024-01-15T13:51:09;22.00;;;11.60;;
84860;SDS011;75116;42.644;23.274;2024-01-15T13:53:37;8.57;;;5.20;;
84860;SDS011;75116;42.644;23.274;2024-01-15T13:56:06;9.85;;;5.05;;
84860;SDS011;75116;42.644;23.274;2024-01-15T13:58:32;8.18;;;4.93;;
84860;SDS011;75116;42.644;23.274;2024-01-15T14:01:00;20.88;;;12.38;;
84860;SDS011;75116;42.644;23.274;2024-01-15T14:03:28;47.92;;;21.95;;
84860;SDS011;75116;42.644;23.274;2024-01-15T14:05:54;31.73;;;18.63;;
84860;SDS011;75116;42.644;23.274;2024-01-15T14:08:20;34.40;;;18.77;;
84860;SDS011;75116;42.644;23.274;2024-01-15T14:10:46;39.60;;;19.65;;
84860;SDS011;75116;42.644;23.274;2024-01-15T14:13:11;40.42;;;21.08;;
84860;SDS011;75116;42.644;23.274;2024-01-15T14:15:39;34.22;;;18.52;;
84860;SDS011;75116;42.644;23.274;2024-01-15T14:18:05;42.78;;;23.17;;
84860;SDS011;75116;42.644;23.274;2024-01-15T14:20:30;39.20;;;19.73;;
84860;SDS011;75116;42.644;23.274;2024-01-15T14:22:56;33.10;;;19.52;;
84860;SDS011;75116;42.644;23.274;2024-01-15T14:25:21;40.95;;;20.60;;
84860;SDS011;75116;42.644;23.274;2024-01-15T14:27:47;39.08;;;21.92;;
84860;SDS011;75116;42.644;23.274;2024-01-15T14:30:13;35.67;;;20.33;;
84860;SDS011;75116;42.644;23.274;2024-01-15T14:32:41;33.53;;;19.52;;
84860;SDS011;75116;42.644;23.274;2024-01-15T14:35:08;41.17;;;23.08;;
84860;SDS011;75116;42.644;23.274;2024-01-15T14:37:39;35.97;;;19.40;;
84860;SDS011;75116;42.644;23.274;2024-01-15T14:40:08;39.30;;;21.33;;
84860;SDS011;75116;42.644;23.274;2024-01-15T14:42:35;27.73;;;17.10;;
84860;SDS011;75116;42.644;23.274;2024-01-15T14:45:02;41.67;;;20.92;;
84860;SDS011;75116;42.644;23.274;2024-01-15T14:47:29;31.45;;;15.75;;
84860;SDS011;75116;42.644;23.274;2024-01-15T14:49:56;30.05;;;17.33;;
84860;SDS011;75116;42.644;23.274;2024-01-15T14:52:22;24.63;;;13.88;;
84860;SDS011;75116;42.644;23.274;2024-01-15T14:54:48;31.33;;;17.90;;
84860;SDS011;75116;42.644;23.274;2024-01-15T14:57:14;24.98;;;14.30;;
84860;SDS011;75116;42.644;23.274;2024-01-15T14:59:39;21.00;;;12.60;;
84860;SDS011;75116;42.644;23.274;2024-01-15T15:02:05;18.42;;;11.65;;
84860;SDS011;75116;42.644;23.274;2024-01-15T15:04:31;24.00;;;11.65;;
84860;SDS011;75116;42.644;23.274;2024-01-15T15:06:57;13.23;;;5.30;;
84860;SDS011;75116;42.644;23.274;2024-01-15T15:09:23;23.52;;;13.25;;
84860;SDS011;75116;42.644;23.274;2024-01-15T15:11:49;19.98;;;11.52;;
84860;SDS011;75116;42.644;23.274;2024-01-15T15:14:14;25.60;;;11.50;;
84860;SDS011;75116;42.644;23.274;2024-01-15T15:16:42;24.55;;;12.65;;
84860;SDS011;75116;42.644;23.274;2024-01-15T15:19:07;21.45;;;9.98;;
84860;SDS011;75116;42.644;23.274;2024-01-15T15:21:33;16.27;;;8.50;;
84860;SDS011;75116;42.644;23.274;2024-01-15T15:23:58;27.05;;;12.63;;
84860;SDS011;75116;42.644;23.274;2024-01-15T15:26:25;23.77;;;13.65;;
84860;SDS011;75116;42.644;23.274;2024-01-15T15:28:51;24.60;;;12.65;;
84860;SDS011;75116;42.644;23.274;2024-01-15T15:31:16;23.40;;;12.73;;
84860;SDS011;75116;42.644;23.274;2024-01-15T15:33:43;25.20;;;14.00;;
84860;SDS011;75116;42.644;23.274;2024-01-15T15:36:09;27.55;;;14.20;;
84860;SDS011;75116;42.644;23.274;2024-01-15T15:38:35;13.35;;;7.10;;
84860;SDS011;75116;42.644;23.274;2024-01-15T15:41:01;23.40;;;12.10;;
84860;SDS011;75116;42.644;23.274;2024-01-15T15:43:27;20.95;;;10.93;;
84860;SDS011;75116;42.644;23.274;2024-01-15T15:45:52;19.95;;;9.75;;
84860;SDS011;75116;42.644;23.274;2024-01-15T15:48:18;16.85;;;11.82;;
84860;SDS011;75116;42.644;23.274;2024-01-15T15:50:44;21.05;;;12.02;;
84860;SDS011;75116;42.644;23.274;2024-01-15T15:53:09;20.10;;;10.55;;
84860;SDS011;75116;42.644;23.274;2024-01-15T15:55:36;16.52;;;9.80;;
84860;SDS011;75116;42.644;23.274;2024-01-15T15:58:03;9.85;;;5.22;;
84860;SDS011;75116;42.644;23.274;2024-01-15T16:00:30;15.05;;;6.65;;
84860;SDS011;75116;42.644;23.274;2024-01-15T16:02:55;13.68;;;7.80;;
84860;SDS011;75116;42.644;23.274;2024-01-15T16:05:21;15.13;;;9.25;;
84860;SDS011;75116;42.644;23.274;2024-01-15T16:07:49;17.30;;;9.15;;
84860;SDS011;75116;42.644;23.274;2024-01-15T16:10:15;14.30;;;8.32;;
84860;SDS011;75116;42.644;23.274;2024-01-15T16:12:41;14.40;;;8.68;;
84860;SDS011;75116;42.644;23.274;2024-01-15T16:15:22;10.80;;;6.93;;
84860;SDS011;75116;42.644;23.274;2024-01-15T16:17:48;8.52;;;5.40;;
84860;SDS011;75116;42.644;23.274;2024-01-15T16:20:18;12.27;;;8.93;;
84860;SDS011;75116;42.644;23.274;2024-01-15T16:22:45;11.88;;;6.20;;
84860;SDS011;75116;42.644;23.274;2024-01-15T16:25:11;6.55;;;4.75;;
84860;SDS011;75116;42.644;23.274;2024-01-15T16:27:37;15.77;;;6.68;;
84860;SDS011;75116;42.644;23.274;2024-01-15T16:30:04;14.82;;;7.10;;
84860;SDS011;75116;42.644;23.274;2024-01-15T16:32:31;8.75;;;5.65;;
84860;SDS011;75116;42.644;23.274;2024-01-15T16:34:57;19.02;;;11.18;;